Airfield :







YOU CAN JOIN US ON...

 
LOGIN :

Register | Disclaimer

   EN    FR    IT 

 









Legend :    VFR   Marginal VFR   IFR   Intensive IFR   Very Intensive IFR
Visi :
Ceiling :
>= 8 km
>= 3000ft
5 to 8 km
1000 to 3000 ft
1500m to 5 km
500 to 1000 ft
800 to 1500m
200 to 500 ft
< 800m
< 200 ft
Symbols :   Thunderstorms  Fog  Heavy snow  Heavy precipitations  Wind > 20 kt






- Airport Elevation : 881 ft


KNY0 - Fulton County

CURRENT METAR :
  • 200717Z AUTO 32010G19KT 10SM BKN021 OVC030 M01/M05 A2997 RMK AO2

EXPIRED METARs :
  • 200657Z AUTO 34008G16KT 10SM OVC021 M01/M04 A2994 RMK AO2
  • 200638Z AUTO 33007G15KT 10SM OVC021 00/M04 A2993 RMK AO2
  • 200557Z AUTO 31004KT 10SM OVC025 01/M04 A2992 RMK AO2
  • 200537Z AUTO 31008G19KT 10SM BKN025 BKN030 OVC041 01/M03 A2992 RMK AO2
  • 200517Z AUTO 33011G17KT 10SM BKN028 BKN034 OVC042 01/M03 A2991 RMK AO2
  • 200457Z AUTO 31009KT 10SM SCT028 OVC042 02/M03 A2991 RMK AO2
  • 200437Z AUTO 32009G15KT 10SM SCT030 OVC037 02/M03 A2990 RMK AO2

TAF N/A



MET'MAP, your aeronautical weather chart ! - Copyright ORBIFLY December 2007 - Disclaimer

ORBIFLY MET'MAP TEAM :

Programming & Development : Alexandra Zaïnal
Concept & original design : Baudouin d'Aumeries
Assistance for programming : Marc-Olivier Méhu
Technical & hardware support : Manuel Goepfert

Contact : metmap@orbifly.com




SOURCES & CREDITS :

   NOAA